Time;durP1;ratioP1;P1;durP2;ratioP2;P2;SDS_P1;SDS_P2;PMS_P1;PMS_P2;Temp;Humidity;BMP_temperature;BMP_pressure;BME280_temperature;BME280_humidity;BME280_pressure;Samples;Min_cycle;Max_cycle;Signal;HPM_P1;HPM_P2
2022/07/27 00:00:56;;;;;;;4.35;1.77;;;;;;;;;;5086385;28;20083;-86
2022/07/27 00:03:24;;;;;;;1.60;1.60;;;;;;;;;;5083886;28;20051;-84
2022/07/27 00:05:51;;;;;;;4.20;1.95;;;;;;;;;;5084424;28;20067;-85
2022/07/27 00:08:19;;;;;;;3.80;2.00;;;;;;;;;;5083998;28;20044;-85
2022/07/27 00:10:46;;;;;;;2.35;2.05;;;;;;;;;;5082701;28;20063;-85
2022/07/27 00:13:14;;;;;;;2.35;1.40;;;;;;;;;;5083362;28;20508;-84
2022/07/27 00:15:41;;;;;;;2.22;1.40;;;;;;;;;;5083453;28;20104;-83
2022/07/27 00:18:09;;;;;;;2.88;1.80;;;;;;;;;;5084167;28;20056;-85
2022/07/27 00:20:36;;;;;;;1.70;1.60;;;;;;;;;;5083574;28;20200;-84
2022/07/27 00:23:03;;;;;;;1.67;1.58;;;;;;;;;;5084066;28;20052;-84
2022/07/27 00:25:30;;;;;;;2.28;1.30;;;;;;;;;;5084171;28;20048;-84
2022/07/27 00:27:58;;;;;;;4.97;1.60;;;;;;;;;;5081852;28;20040;-85
2022/07/27 00:30:25;;;;;;;2.45;1.48;;;;;;;;;;5082407;28;20040;-84
2022/07/27 00:32:52;;;;;;;3.25;1.52;;;;;;;;;;5083636;28;20052;-84
2022/07/27 00:35:20;;;;;;;1.67;1.58;;;;;;;;;;5082212;28;20044;-85
2022/07/27 00:37:47;;;;;;;4.97;1.40;;;;;;;;;;5080826;28;20052;-85
2022/07/27 00:40:15;;;;;;;1.23;1.08;;;;;;;;;;5083320;28;20052;-85
2022/07/27 00:42:42;;;;;;;2.25;1.15;;;;;;;;;;5079824;28;20051;-86
2022/07/27 00:45:10;;;;;;;1.75;1.10;;;;;;;;;;5088711;28;20055;-83
2022/07/27 00:47:37;;;;;;;0.93;0.93;;;;;;;;;;5088297;28;20044;-83
2022/07/27 00:50:05;;;;;;;1.75;0.82;;;;;;;;;;5090239;28;20041;-82
2022/07/27 00:52:32;;;;;;;4.55;1.02;;;;;;;;;;5088350;28;20072;-84
2022/07/27 00:54:59;;;;;;;2.38;1.17;;;;;;;;;;5081725;28;20048;-83
2022/07/27 00:57:27;;;;;;;4.03;1.05;;;;;;;;;;5078795;28;20053;-86
2022/07/27 00:59:54;;;;;;;4.68;1.13;;;;;;;;;;5078826;28;20075;-84
2022/07/27 01:02:21;;;;;;;1.60;1.42;;;;;;;;;;5078053;28;20045;-84
2022/07/27 01:04:50;;;;;;;2.15;0.82;;;;;;;;;;5075892;28;20502;-86
2022/07/27 01:07:21;;;;;;;1.88;1.10;;;;;;;;;;5080649;28;20192;-86
2022/07/27 01:09:55;;;;;;;3.08;1.17;;;;;;;;;;5078518;28;20044;-85
2022/07/27 01:12:24;;;;;;;3.65;0.80;;;;;;;;;;5080824;28;20098;-84
2022/07/27 01:14:52;;;;;;;0.82;0.70;;;;;;;;;;5084556;28;20075;-83
2022/07/27 01:17:19;;;;;;;1.65;0.73;;;;;;;;;;5082728;28;20052;-83
2022/07/27 01:19:47;;;;;;;2.40;0.73;;;;;;;;;;5084867;28;20056;-83
2022/07/27 01:22:14;;;;;;;0.93;0.73;;;;;;;;;;5087514;28;20067;-83
2022/07/27 01:24:41;;;;;;;1.10;0.70;;;;;;;;;;5082547;28;20040;-83
2022/07/27 01:27:08;;;;;;;3.17;0.82;;;;;;;;;;5082164;28;20049;-83
2022/07/27 01:29:35;;;;;;;2.40;0.90;;;;;;;;;;5083654;28;20051;-83
2022/07/27 01:32:03;;;;;;;1.45;0.80;;;;;;;;;;5085552;28;20052;-82
2022/07/27 01:34:33;;;;;;;3.10;1.05;;;;;;;;;;5084732;28;20048;-82
2022/07/27 01:37:01;;;;;;;1.55;0.82;;;;;;;;;;5084669;28;20049;-83
2022/07/27 01:39:29;;;;;;;3.00;0.85;;;;;;;;;;5081795;28;20402;-83
2022/07/27 01:41:57;;;;;;;1.73;0.80;;;;;;;;;;5083124;28;20045;-83
2022/07/27 01:44:24;;;;;;;1.58;1.00;;;;;;;;;;5083611;28;20044;-82
2022/07/27 01:46:51;;;;;;;1.08;0.80;;;;;;;;;;5084909;28;20056;-83
2022/07/27 01:49:18;;;;;;;1.08;0.82;;;;;;;;;;5085279;28;20045;-83
2022/07/27 01:51:46;;;;;;;2.05;1.05;;;;;;;;;;5080535;28;20055;-82
2022/07/27 01:54:13;;;;;;;1.35;0.88;;;;;;;;;;5080874;28;20107;-83
2022/07/27 01:56:41;;;;;;;1.17;0.95;;;;;;;;;;5082779;28;20053;-83
2022/07/27 01:59:08;;;;;;;0.77;0.77;;;;;;;;;;5087673;28;20075;-82
2022/07/27 02:01:42;;;;;;;0.90;0.90;;;;;;;;;;5086720;28;20052;-83
2022/07/27 02:04:10;;;;;;;1.08;1.02;;;;;;;;;;5081589;28;20047;-83
2022/07/27 02:06:37;;;;;;;0.93;0.93;;;;;;;;;;5080969;28;20445;-82
2022/07/27 02:09:05;;;;;;;1.98;0.80;;;;;;;;;;5078956;28;20056;-84
2022/07/27 02:14:18;;;;;;;4.80;0.93;;;;;;;;;;5080580;28;20048;-81
2022/07/27 02:16:47;;;;;;;3.83;1.15;;;;;;;;;;5081212;28;20068;-81
2022/07/27 02:19:16;;;;;;;2.45;1.08;;;;;;;;;;5075227;28;20082;-80
2022/07/27 02:21:44;;;;;;;3.08;1.70;;;;;;;;;;5071295;28;20078;-82
2022/07/27 02:24:12;;;;;;;2.67;1.30;;;;;;;;;;5074464;28;20102;-81
2022/07/27 02:26:39;;;;;;;2.53;1.60;;;;;;;;;;5077100;28;20044;-82
2022/07/27 02:29:06;;;;;;;4.68;1.67;;;;;;;;;;5077133;28;20456;-81
2022/07/27 02:31:34;;;;;;;3.97;1.92;;;;;;;;;;5076565;28;20056;-81
2022/07/27 02:34:01;;;;;;;3.72;1.80;;;;;;;;;;5077933;28;20060;-81
2022/07/27 02:36:28;;;;;;;4.43;2.05;;;;;;;;;;5077432;28;20048;-82
2022/07/27 02:38:55;;;;;;;4.38;1.92;;;;;;;;;;5077237;28;20102;-81
2022/07/27 02:41:23;;;;;;;3.63;1.85;;;;;;;;;;5075875;28;20048;-82
2022/07/27 02:43:50;;;;;;;9.40;3.40;;;;;;;;;;5076218;28;20048;-81
2022/07/27 02:46:17;;;;;;;3.47;2.38;;;;;;;;;;5077208;28;20110;-82
2022/07/27 02:48:44;;;;;;;6.88;2.38;;;;;;;;;;5077808;28;20056;-82
2022/07/27 02:51:13;;;;;;;3.70;2.58;;;;;;;;;;5076491;28;20045;-81
2022/07/27 02:53:41;;;;;;;4.00;2.47;;;;;;;;;;5076182;28;20048;-81
2022/07/27 02:56:08;;;;;;;3.92;1.95;;;;;;;;;;5076638;28;20045;-80
2022/07/27 02:58:36;;;;;;;6.93;2.42;;;;;;;;;;5076256;28;20098;-80
2022/07/27 03:01:03;;;;;;;10.73;2.42;;;;;;;;;;5076933;28;20048;-81
2022/07/27 03:03:31;;;;;;;4.65;2.28;;;;;;;;;;5076239;28;20045;-80
2022/07/27 03:06:03;;;;;;;7.55;2.47;;;;;;;;;;5076797;28;20494;-80
2022/07/27 03:08:30;;;;;;;7.75;2.42;;;;;;;;;;5075496;28;20048;-80
2022/07/27 03:10:57;;;;;;;4.20;2.22;;;;;;;;;;5076124;28;20460;-81
2022/07/27 03:13:25;;;;;;;6.70;2.75;;;;;;;;;;5076084;28;20052;-82
2022/07/27 03:15:52;;;;;;;4.55;2.15;;;;;;;;;;5074785;28;20523;-81
2022/07/27 03:18:20;;;;;;;5.93;2.58;;;;;;;;;;5075550;28;20052;-80
2022/07/27 03:20:47;;;;;;;12.23;2.97;;;;;;;;;;5075034;28;20052;-83
2022/07/27 03:23:14;;;;;;;10.30;3.03;;;;;;;;;;5076151;28;20044;-84
2022/07/27 03:25:42;;;;;;;9.25;2.80;;;;;;;;;;5074247;28;20469;-86
2022/07/27 03:28:09;;;;;;;9.55;3.15;;;;;;;;;;5074284;28;20092;-86
2022/07/27 03:30:36;;;;;;;15.90;4.00;;;;;;;;;;5073645;28;20072;-85
2022/07/27 03:33:03;;;;;;;8.25;3.08;;;;;;;;;;5073774;28;20111;-85
2022/07/27 03:35:30;;;;;;;9.13;4.00;;;;;;;;;;5072850;28;20048;-85
2022/07/27 03:37:57;;;;;;;7.85;2.97;;;;;;;;;;5073216;28;20098;-85
2022/07/27 03:40:28;;;;;;;8.18;3.13;;;;;;;;;;5073279;28;20098;-84
2022/07/27 03:42:55;;;;;;;10.55;3.85;;;;;;;;;;5077924;28;20055;-85
2022/07/27 03:45:22;;;;;;;5.82;3.33;;;;;;;;;;5076408;28;20044;-84
2022/07/27 03:47:49;;;;;;;12.50;3.00;;;;;;;;;;5075625;28;20109;-84
2022/07/27 03:50:16;;;;;;;9.90;4.05;;;;;;;;;;5076543;28;20068;-83
2022/07/27 03:52:44;;;;;;;10.98;3.75;;;;;;;;;;5076485;28;20083;-84
2022/07/27 03:55:11;;;;;;;10.43;3.60;;;;;;;;;;5074124;28;20508;-83
2022/07/27 03:57:39;;;;;;;9.23;3.90;;;;;;;;;;5074009;28;20045;-82
2022/07/27 04:00:07;;;;;;;8.35;3.40;;;;;;;;;;5072889;28;20045;-83
2022/07/27 04:02:34;;;;;;;8.77;4.20;;;;;;;;;;5072637;28;20052;-83
2022/07/27 04:05:01;;;;;;;6.53;3.58;;;;;;;;;;5073034;28;20136;-82
2022/07/27 04:07:28;;;;;;;6.32;3.50;;;;;;;;;;5072591;28;20490;-83
2022/07/27 04:09:56;;;;;;;5.85;3.22;;;;;;;;;;5074215;28;20105;-83
2022/07/27 04:12:23;;;;;;;7.85;3.78;;;;;;;;;;5073832;28;20040;-83
2022/07/27 04:14:50;;;;;;;7.28;3.15;;;;;;;;;;5072553;28;20056;-82
2022/07/27 04:17:18;;;;;;;7.68;3.45;;;;;;;;;;5072469;28;20134;-82
2022/07/27 04:20:05;;;;;;;6.85;3.50;;;;;;;;;;5072740;28;20055;-82
2022/07/27 04:22:32;;;;;;;8.48;3.55;;;;;;;;;;5072434;28;20132;-82
2022/07/27 04:25:00;;;;;;;10.45;4.35;;;;;;;;;;5072227;28;20075;-82
2022/07/27 04:27:27;;;;;;;8.18;4.13;;;;;;;;;;5072521;28;20071;-82
2022/07/27 04:29:54;;;;;;;11.93;3.97;;;;;;;;;;5072406;28;20084;-82
2022/07/27 04:32:21;;;;;;;7.10;4.00;;;;;;;;;;5073543;28;20044;-82
2022/07/27 04:34:48;;;;;;;10.77;3.85;;;;;;;;;;5072085;28;20084;-82
2022/07/27 04:37:16;;;;;;;5.53;3.30;;;;;;;;;;5072076;28;20052;-82
2022/07/27 04:39:43;;;;;;;11.13;3.63;;;;;;;;;;5073288;28;20083;-82
2022/07/27 04:42:10;;;;;;;9.10;3.70;;;;;;;;;;5071989;28;20048;-82
2022/07/27 04:44:37;;;;;;;10.00;3.80;;;;;;;;;;5072082;28;20052;-81
2022/07/27 04:47:04;;;;;;;8.13;3.38;;;;;;;;;;5071923;28;20076;-82
2022/07/27 04:49:31;;;;;;;11.05;3.58;;;;;;;;;;5071779;28;20040;-82
2022/07/27 04:51:58;;;;;;;9.30;3.78;;;;;;;;;;5071908;28;20454;-81
2022/07/27 04:54:26;;;;;;;11.13;4.20;;;;;;;;;;5072913;28;20053;-82
2022/07/27 04:56:53;;;;;;;6.25;3.22;;;;;;;;;;5071879;28;20056;-81
2022/07/27 04:59:20;;;;;;;9.98;3.60;;;;;;;;;;5071752;28;20072;-81
2022/07/27 05:01:47;;;;;;;7.70;3.80;;;;;;;;;;5071840;28;20565;-82
2022/07/27 05:04:14;;;;;;;9.60;3.58;;;;;;;;;;5071925;28;20041;-81
2022/07/27 05:06:41;;;;;;;11.07;9.73;;;;;;;;;;5071850;28;20045;-81
2022/07/27 05:09:09;;;;;;;9.27;6.38;;;;;;;;;;5071829;28;20074;-81
2022/07/27 05:11:36;;;;;;;13.07;7.20;;;;;;;;;;5072874;28;20044;-81
2022/07/27 05:14:03;;;;;;;10.18;6.40;;;;;;;;;;5071685;28;20072;-81
2022/07/27 05:16:30;;;;;;;8.35;4.70;;;;;;;;;;5071398;28;20506;-81
2022/07/27 05:18:58;;;;;;;9.13;5.25;;;;;;;;;;5071816;28;20131;-81
2022/07/27 05:21:27;;;;;;;9.48;3.70;;;;;;;;;;5071593;28;20084;-81
2022/07/27 05:23:54;;;;;;;4.35;3.58;;;;;;;;;;5071677;28;20413;-81
2022/07/27 05:26:22;;;;;;;6.35;3.13;;;;;;;;;;5071617;28;20052;-81
2022/07/27 05:28:49;;;;;;;6.10;3.47;;;;;;;;;;5071509;28;20049;-81
2022/07/27 05:31:17;;;;;;;5.72;3.10;;;;;;;;;;5072455;28;20084;-81
2022/07/27 05:33:44;;;;;;;8.00;3.30;;;;;;;;;;5071456;28;20048;-81
2022/07/27 05:36:16;;;;;;;7.90;3.00;;;;;;;;;;5071498;28;20048;-81
2022/07/27 05:38:43;;;;;;;10.35;2.90;;;;;;;;;;5072465;28;20095;-81
2022/07/27 05:41:10;;;;;;;4.60;2.70;;;;;;;;;;5071328;28;20139;-81
2022/07/27 05:43:37;;;;;;;3.72;2.40;;;;;;;;;;5071238;28;20080;-81
2022/07/27 05:46:04;;;;;;;4.55;2.75;;;;;;;;;;5071494;28;20056;-81
2022/07/27 05:48:32;;;;;;;6.75;3.10;;;;;;;;;;5072443;28;20045;-81
2022/07/27 05:50:59;;;;;;;6.00;3.50;;;;;;;;;;5071332;28;20048;-81
2022/07/27 05:53:27;;;;;;;4.63;3.47;;;;;;;;;;5071214;28;20048;-81
2022/07/27 05:55:54;;;;;;;6.72;3.28;;;;;;;;;;5071372;28;20048;-81
2022/07/27 05:58:26;;;;;;;6.15;3.05;;;;;;;;;;5074514;28;20044;-81
2022/07/27 06:00:53;;;;;;;9.10;3.80;;;;;;;;;;5075015;28;20072;-80
2022/07/27 06:03:20;;;;;;;7.55;3.38;;;;;;;;;;5076181;28;20056;-81
2022/07/27 06:05:48;;;;;;;7.95;3.53;;;;;;;;;;5075028;28;20053;-81
2022/07/27 06:08:15;;;;;;;6.97;3.13;;;;;;;;;;5076237;28;20076;-81
2022/07/27 06:10:42;;;;;;;5.07;2.63;;;;;;;;;;5075035;28;20072;-81
2022/07/27 06:13:10;;;;;;;6.60;2.28;;;;;;;;;;5075053;28;20075;-81
2022/07/27 06:15:39;;;;;;;6.57;2.08;;;;;;;;;;5074801;28;20489;-81
2022/07/27 06:18:08;;;;;;;6.47;1.83;;;;;;;;;;5074820;28;20044;-81
2022/07/27 06:20:35;;;;;;;4.15;1.77;;;;;;;;;;5074646;28;20079;-81
2022/07/27 06:23:02;;;;;;;3.85;1.50;;;;;;;;;;5074892;28;20044;-81
2022/07/27 06:25:34;;;;;;;4.85;2.25;;;;;;;;;;5075071;28;20049;-81
2022/07/27 06:28:03;;;;;;;5.97;2.10;;;;;;;;;;5074765;28;20068;-81
2022/07/27 06:30:30;;;;;;;5.53;1.88;;;;;;;;;;5074699;28;20044;-82
2022/07/27 06:32:57;;;;;;;4.70;1.63;;;;;;;;;;5074861;28;20124;-82
2022/07/27 06:35:25;;;;;;;4.70;1.63;;;;;;;;;;5074541;28;20049;-81
2022/07/27 06:37:53;;;;;;;5.93;1.50;;;;;;;;;;5075642;28;20044;-81
2022/07/27 06:40:20;;;;;;;9.77;1.80;;;;;;;;;;5075644;28;20053;-80
2022/07/27 06:42:47;;;;;;;10.43;1.73;;;;;;;;;;5074487;28;20060;-81
2022/07/27 06:45:15;;;;;;;13.68;1.70;;;;;;;;;;5074487;28;20045;-80
2022/07/27 06:47:42;;;;;;;3.70;1.20;;;;;;;;;;5074129;28;20057;-80
2022/07/27 06:50:17;;;;;;;5.28;1.60;;;;;;;;;;5074393;28;20051;-81
2022/07/27 06:52:44;;;;;;;6.20;1.92;;;;;;;;;;5074289;28;20045;-81
2022/07/27 06:55:12;;;;;;;9.05;1.70;;;;;;;;;;5074037;28;20095;-81
2022/07/27 06:57:39;;;;;;;5.25;1.63;;;;;;;;;;5074075;28;20049;-81
2022/07/27 07:00:07;;;;;;;7.78;2.00;;;;;;;;;;5074425;28;20087;-81
2022/07/27 07:02:34;;;;;;;7.00;1.45;;;;;;;;;;5073964;28;20509;-80
2022/07/27 07:05:01;;;;;;;7.63;2.05;;;;;;;;;;5073674;28;20063;-81
2022/07/27 07:07:28;;;;;;;10.02;1.63;;;;;;;;;;5073736;28;20049;-81
2022/07/27 07:09:55;;;;;;;4.15;1.35;;;;;;;;;;5072952;28;20086;-80
2022/07/27 07:12:24;;;;;;;6.90;1.67;;;;;;;;;;5073853;28;20044;-81
2022/07/27 07:14:51;;;;;;;3.58;1.42;;;;;;;;;;5074213;28;20056;-80
2022/07/27 07:17:18;;;;;;;9.35;1.60;;;;;;;;;;5074449;28;20053;-81
2022/07/27 07:19:46;;;;;;;6.68;1.58;;;;;;;;;;5075701;28;20053;-81
2022/07/27 07:22:13;;;;;;;5.15;1.40;;;;;;;;;;5073653;28;20477;-82
2022/07/27 07:24:40;;;;;;;5.93;1.90;;;;;;;;;;5074193;28;20052;-82
2022/07/27 07:27:07;;;;;;;3.53;1.17;;;;;;;;;;5073733;28;20136;-82
2022/07/27 07:29:34;;;;;;;10.50;1.75;;;;;;;;;;5073644;28;20053;-82
2022/07/27 07:32:01;;;;;;;5.53;1.67;;;;;;;;;;5073832;28;20102;-82
2022/07/27 07:34:29;;;;;;;8.07;1.65;;;;;;;;;;5074188;28;20056;-82
2022/07/27 07:36:56;;;;;;;5.18;1.45;;;;;;;;;;5073470;28;20080;-82
2022/07/27 07:39:24;;;;;;;6.18;1.40;;;;;;;;;;5073178;28;20055;-83
2022/07/27 07:41:57;;;;;;;5.45;1.15;;;;;;;;;;5073111;28;20049;-82
2022/07/27 07:44:25;;;;;;;6.15;1.50;;;;;;;;;;5073489;28;20074;-83
2022/07/27 07:46:52;;;;;;;7.35;1.35;;;;;;;;;;5073233;28;20501;-83
2022/07/27 07:49:21;;;;;;;4.55;1.40;;;;;;;;;;5073349;28;20132;-83
2022/07/27 07:52:06;;;;;;;4.75;1.52;;;;;;;;;;5073334;28;20048;-82
2022/07/27 07:54:33;;;;;;;9.40;1.25;;;;;;;;;;5074603;28;20147;-83
2022/07/27 07:57:01;;;;;;;5.50;1.10;;;;;;;;;;5073497;28;20102;-83
2022/07/27 07:59:28;;;;;;;8.23;1.50;;;;;;;;;;5073216;28;20052;-83
2022/07/27 08:01:55;;;;;;;8.48;1.10;;;;;;;;;;5072790;28;20056;-81
2022/07/27 08:04:22;;;;;;;5.10;0.90;;;;;;;;;;5072707;28;20072;-83
2022/07/27 08:06:50;;;;;;;4.63;1.00;;;;;;;;;;5073011;28;20048;-83
2022/07/27 08:09:17;;;;;;;9.05;1.17;;;;;;;;;;5073504;28;20044;-84
2022/07/27 08:11:44;;;;;;;5.13;1.00;;;;;;;;;;5072456;28;20048;-82
2022/07/27 08:14:11;;;;;;;3.72;1.13;;;;;;;;;;5072847;28;20091;-83
2022/07/27 08:16:38;;;;;;;5.93;0.98;;;;;;;;;;5072451;28;20052;-83
2022/07/27 08:19:07;;;;;;;3.97;0.93;;;;;;;;;;5073523;28;20049;-82
2022/07/27 08:21:35;;;;;;;10.15;1.10;;;;;;;;;;5072901;28;20121;-82
2022/07/27 08:24:02;;;;;;;4.28;1.00;;;;;;;;;;5072428;28;20094;-84
2022/07/27 08:26:30;;;;;;;1.95;0.95;;;;;;;;;;5072430;28;20041;-83
2022/07/27 08:28:57;;;;;;;5.20;0.73;;;;;;;;;;5072220;28;20087;-84
2022/07/27 08:31:37;;;;;;;4.60;0.98;;;;;;;;;;5072445;28;20410;-84
2022/07/27 08:34:17;;;;;;;6.85;1.10;;;;;;;;;;5072330;28;20051;-84
2022/07/27 08:36:44;;;;;;;5.70;1.20;;;;;;;;;;5072078;28;20490;-84
2022/07/27 08:39:12;;;;;;;5.47;1.13;;;;;;;;;;5072411;28;20048;-84
2022/07/27 08:42:03;;;;;;;5.13;1.02;;;;;;;;;;5072742;28;20059;-84
2022/07/27 08:44:31;;;;;;;12.30;1.13;;;;;;;;;;5072017;28;20052;-85
2022/07/27 08:47:01;;;;;;;4.72;1.20;;;;;;;;;;5072125;28;20067;-84
2022/07/27 08:49:29;;;;;;;3.92;0.95;;;;;;;;;;5073469;28;20516;-85
2022/07/27 08:52:11;;;;;;;3.20;0.93;;;;;;;;;;5072250;28;20409;-85
2022/07/27 08:54:39;;;;;;;4.30;0.93;;;;;;;;;;5071941;28;20049;-86
2022/07/27 08:57:07;;;;;;;5.57;1.23;;;;;;;;;;5072100;28;20189;-85
2022/07/27 08:59:34;;;;;;;2.97;0.77;;;;;;;;;;5071913;28;20048;-85
2022/07/27 09:02:03;;;;;;;2.92;1.17;;;;;;;;;;5071866;28;20454;-86
2022/07/27 09:04:31;;;;;;;4.38;1.10;;;;;;;;;;5071986;28;20049;-85
2022/07/27 09:06:58;;;;;;;3.03;1.02;;;;;;;;;;5071935;28;20045;-85
2022/07/27 09:09:25;;;;;;;5.07;1.15;;;;;;;;;;5072325;28;20090;-86
2022/07/27 09:12:10;;;;;;;5.82;1.38;;;;;;;;;;5071667;28;20432;-86
2022/07/27 09:14:38;;;;;;;5.20;1.10;;;;;;;;;;5072767;28;20110;-85
2022/07/27 09:17:24;;;;;;;6.07;1.40;;;;;;;;;;5071796;28;20068;-84
2022/07/27 09:20:15;;;;;;;6.28;1.35;;;;;;;;;;5072129;28;20394;-85
2022/07/27 09:22:52;;;;;;;4.45;1.15;;;;;;;;;;5071761;28;20048;-86
2022/07/27 09:25:21;;;;;;;7.78;1.48;;;;;;;;;;5071582;28;20587;-85
2022/07/27 09:28:08;;;;;;;3.80;1.10;;;;;;;;;;5071605;28;20564;-84
2022/07/27 09:30:40;;;;;;;4.03;1.35;;;;;;;;;;5071751;28;20048;-86
2022/07/27 09:33:07;;;;;;;7.47;1.50;;;;;;;;;;5074028;28;20048;-86
2022/07/27 09:35:35;;;;;;;7.88;1.70;;;;;;;;;;5075729;28;20084;-88
2022/07/27 09:38:18;;;;;;;4.97;1.25;;;;;;;;;;5075952;28;20048;-86
2022/07/27 09:40:48;;;;;;;6.97;1.17;;;;;;;;;;5075692;28;20052;-86
2022/07/27 09:43:15;;;;;;;4.45;1.15;;;;;;;;;;5075895;28;20287;-84
2022/07/27 09:46:06;;;;;;;6.15;1.25;;;;;;;;;;5076601;28;20074;-84
2022/07/27 09:48:34;;;;;;;5.10;1.40;;;;;;;;;;5075523;28;20486;-85
2022/07/27 09:51:03;;;;;;;5.50;1.35;;;;;;;;;;5076240;28;20056;-86
2022/07/27 09:53:54;;;;;;;12.02;1.98;;;;;;;;;;5075806;28;20048;-85
2022/07/27 09:56:28;;;;;;;4.03;1.20;;;;;;;;;;5075893;28;20055;-87
2022/07/27 09:58:56;;;;;;;6.18;1.42;;;;;;;;;;5077756;28;20048;-86
2022/07/27 10:01:25;;;;;;;5.65;1.52;;;;;;;;;;5077627;28;20048;-85
2022/07/27 10:03:57;;;;;;;4.78;1.30;;;;;;;;;;5076048;28;20052;-87
2022/07/27 10:06:25;;;;;;;5.75;1.30;;;;;;;;;;5075921;28;20102;-86
2022/07/27 10:08:53;;;;;;;9.05;1.60;;;;;;;;;;5077153;28;20051;-87
2022/07/27 10:11:21;;;;;;;8.40;2.03;;;;;;;;;;5076686;28;20057;-85
2022/07/27 10:13:49;;;;;;;6.13;1.60;;;;;;;;;;5076186;28;20053;-86
2022/07/27 10:16:18;;;;;;;3.92;1.55;;;;;;;;;;5077670;28;20555;-87
2022/07/27 10:18:45;;;;;;;5.68;1.60;;;;;;;;;;5075902;28;20502;-86
2022/07/27 10:21:22;;;;;;;4.10;1.50;;;;;;;;;;5082503;28;20543;-88
2022/07/27 10:23:56;;;;;;;11.25;2.20;;;;;;;;;;5085196;28;20102;-86
2022/07/27 10:26:23;;;;;;;4.80;1.52;;;;;;;;;;5080159;28;20045;-87
2022/07/27 10:28:55;;;;;;;2.88;1.20;;;;;;;;;;5078608;28;20135;-88
2022/07/27 10:31:24;;;;;;;5.80;1.30;;;;;;;;;;5082061;28;20041;-85
2022/07/27 10:33:56;;;;;;;5.22;1.48;;;;;;;;;;5081172;28;20044;-86
2022/07/27 10:36:23;;;;;;;10.32;2.20;;;;;;;;;;5080091;28;20060;-86
2022/07/27 10:38:57;;;;;;;7.90;1.67;;;;;;;;;;5078295;28;20049;-88
2022/07/27 10:41:26;;;;;;;4.60;1.48;;;;;;;;;;5087798;28;20106;-86
2022/07/27 10:44:12;;;;;;;4.35;1.30;;;;;;;;;;5078438;28;20048;-87
2022/07/27 10:46:50;;;;;;;4.03;1.25;;;;;;;;;;5088507;28;20052;-84
2022/07/27 10:49:21;;;;;;;3.83;1.08;;;;;;;;;;5079185;28;20048;-88
2022/07/27 10:51:48;;;;;;;6.05;1.80;;;;;;;;;;5076370;28;20055;-84
2022/07/27 10:54:33;;;;;;;7.07;1.35;;;;;;;;;;5079232;28;20513;-85
2022/07/27 10:57:02;;;;;;;1.90;1.00;;;;;;;;;;5088070;28;20071;-88
2022/07/27 10:59:38;;;;;;;3.75;1.15;;;;;;;;;;5080940;28;20110;-87
2022/07/27 11:02:39;;;;;;;5.80;1.30;;;;;;;;;;5078542;28;20112;-85
2022/07/27 11:05:07;;;;;;;4.88;1.73;;;;;;;;;;5082141;28;20044;-86
2022/07/27 11:07:55;;;;;;;7.22;1.70;;;;;;;;;;5077623;28;20122;-82
2022/07/27 11:10:47;;;;;;;3.35;1.25;;;;;;;;;;5077838;28;20059;-83
2022/07/27 11:13:17;;;;;;;4.75;1.17;;;;;;;;;;5078697;28;20521;-83
2022/07/27 11:15:54;;;;;;;2.60;1.30;;;;;;;;;;5087274;28;20052;-83
2022/07/27 11:18:42;;;;;;;5.13;1.58;;;;;;;;;;5076671;28;20472;-85
2022/07/27 11:21:15;;;;;;;6.57;1.45;;;;;;;;;;5083306;28;20056;-84
2022/07/27 11:23:56;;;;;;;7.88;1.33;;;;;;;;;;5082224;28;20506;-84
2022/07/27 11:26:24;;;;;;;6.13;1.35;;;;;;;;;;5083030;28;20411;-83
2022/07/27 11:28:51;;;;;;;4.82;1.30;;;;;;;;;;5088637;28;20052;-84
2022/07/27 11:31:19;;;;;;;7.05;1.30;;;;;;;;;;5082681;28;20490;-84
2022/07/27 11:34:06;;;;;;;4.50;1.13;;;;;;;;;;5082496;28;20055;-83
2022/07/27 11:36:45;;;;;;;4.00;1.23;;;;;;;;;;5082538;28;20075;-86
2022/07/27 11:39:13;;;;;;;4.47;1.05;;;;;;;;;;5087823;28;20090;-84
2022/07/27 11:41:41;;;;;;;4.47;1.10;;;;;;;;;;5088122;28;20048;-83
2022/07/27 11:44:29;;;;;;;4.20;1.30;;;;;;;;;;5084239;28;20064;-84
2022/07/27 11:46:57;;;;;;;4.07;1.30;;;;;;;;;;5085259;28;20060;-85
2022/07/27 11:49:29;;;;;;;4.97;1.20;;;;;;;;;;5081799;28;20051;-82
2022/07/27 11:51:57;;;;;;;4.03;0.98;;;;;;;;;;5085487;28;20123;-83
2022/07/27 11:54:29;;;;;;;2.95;1.05;;;;;;;;;;5088306;28;20067;-85
2022/07/27 11:56:57;;;;;;;2.70;1.08;;;;;;;;;;5091771;28;20048;-85
2022/07/27 11:59:28;;;;;;;4.85;1.27;;;;;;;;;;5090655;28;20058;-83
2022/07/27 12:02:00;;;;;;;4.32;1.10;;;;;;;;;;5087066;28;20045;-84
2022/07/27 12:04:28;;;;;;;6.32;1.50;;;;;;;;;;5086537;28;20041;-87
2022/07/27 12:07:12;;;;;;;2.75;0.90;;;;;;;;;;5085899;28;20112;-85
2022/07/27 12:09:49;;;;;;;3.22;0.90;;;;;;;;;;5085342;28;20041;-84
2022/07/27 12:12:17;;;;;;;3.83;1.20;;;;;;;;;;5087871;28;20059;-84
2022/07/27 12:14:49;;;;;;;3.20;1.10;;;;;;;;;;5081284;28;20074;-83
2022/07/27 12:17:20;;;;;;;4.83;1.30;;;;;;;;;;5081033;28;20095;-83
2022/07/27 12:19:54;;;;;;;3.90;1.20;;;;;;;;;;5079961;28;20283;-84
2022/07/27 12:22:25;;;;;;;3.33;0.93;;;;;;;;;;5081435;28;20052;-85
2022/07/27 12:24:53;;;;;;;5.28;1.33;;;;;;;;;;5085666;28;20045;-86
2022/07/27 12:27:25;;;;;;;3.70;1.00;;;;;;;;;;5088756;28;20078;-84
2022/07/27 12:29:59;;;;;;;4.50;1.13;;;;;;;;;;5086513;28;20057;-85
2022/07/27 12:32:27;;;;;;;2.80;0.82;;;;;;;;;;5084754;28;20045;-86
2022/07/27 12:34:56;;;;;;;8.38;1.40;;;;;;;;;;5087121;28;20060;-81
2022/07/27 12:37:28;;;;;;;5.13;0.93;;;;;;;;;;5080172;28;20397;-82
2022/07/27 12:39:55;;;;;;;4.97;1.10;;;;;;;;;;5080438;28;20086;-82
2022/07/27 12:42:31;;;;;;;3.25;1.08;;;;;;;;;;5082075;28;20044;-85
2022/07/27 12:45:10;;;;;;;3.17;0.88;;;;;;;;;;5082180;28;20048;-84
2022/07/27 12:47:40;;;;;;;5.57;1.35;;;;;;;;;;5076665;28;20061;-85
2022/07/27 12:50:14;;;;;;;4.82;1.35;;;;;;;;;;5079711;28;20489;-85
2022/07/27 12:52:43;;;;;;;4.05;0.98;;;;;;;;;;5079722;28;20118;-84
2022/07/27 12:55:12;;;;;;;2.70;1.10;;;;;;;;;;5079621;28;20524;-85
2022/07/27 12:57:42;;;;;;;5.05;1.17;;;;;;;;;;5082688;28;20128;-83
2022/07/27 13:00:24;;;;;;;3.33;1.30;;;;;;;;;;5080893;28;20075;-83
2022/07/27 13:03:00;;;;;;;4.18;0.80;;;;;;;;;;5080235;28;20063;-84
2022/07/27 13:05:27;;;;;;;1.73;0.73;;;;;;;;;;5082736;28;20140;-85
2022/07/27 13:07:54;;;;;;;2.13;0.95;;;;;;;;;;5076773;28;20559;-86
2022/07/27 13:10:21;;;;;;;3.83;0.88;;;;;;;;;;5080028;28;20098;-87
2022/07/27 13:12:49;;;;;;;5.93;1.48;;;;;;;;;;5080378;28;20049;-85
2022/07/27 13:15:17;;;;;;;3.65;1.10;;;;;;;;;;5078114;28;20059;-85
2022/07/27 13:17:45;;;;;;;4.40;1.27;;;;;;;;;;5078097;28;20060;-86
2022/07/27 13:20:13;;;;;;;6.20;1.00;;;;;;;;;;5078747;28;20110;-84
2022/07/27 13:22:41;;;;;;;6.30;1.30;;;;;;;;;;5080186;28;20052;-82
2022/07/27 13:25:09;;;;;;;3.95;1.05;;;;;;;;;;5079147;28;20052;-83
2022/07/27 13:27:43;;;;;;;6.93;1.08;;;;;;;;;;5076887;28;20117;-84
2022/07/27 13:30:12;;;;;;;5.13;1.10;;;;;;;;;;5077879;28;20048;-86
2022/07/27 13:32:41;;;;;;;4.80;1.20;;;;;;;;;;5083252;28;20070;-86
2022/07/27 13:35:11;;;;;;;5.35;1.40;;;;;;;;;;5080889;28;20048;-86
2022/07/27 13:37:38;;;;;;;2.90;1.15;;;;;;;;;;5080137;28;20049;-85
2022/07/27 13:40:06;;;;;;;3.58;1.02;;;;;;;;;;5079147;28;20052;-84
2022/07/27 13:42:35;;;;;;;6.82;0.85;;;;;;;;;;5081070;28;20044;-86
2022/07/27 13:45:04;;;;;;;5.40;1.10;;;;;;;;;;5082669;28;20485;-86
2022/07/27 13:47:38;;;;;;;4.93;0.95;;;;;;;;;;5082682;28;20068;-87
2022/07/27 13:50:08;;;;;;;5.95;0.95;;;;;;;;;;5084024;28;20071;-85
2022/07/27 13:52:43;;;;;;;3.33;0.65;;;;;;;;;;5081465;28;20057;-87
2022/07/27 13:55:12;;;;;;;4.13;0.90;;;;;;;;;;5081533;28;20060;-85
2022/07/27 13:57:39;;;;;;;2.53;0.90;;;;;;;;;;5080591;28;20094;-83
2022/07/27 14:00:06;;;;;;;3.72;0.80;;;;;;;;;;5080125;28;20045;-85
2022/07/27 14:02:38;;;;;;;1.40;0.85;;;;;;;;;;5090835;28;20075;-87
2022/07/27 14:05:08;;;;;;;3.85;0.95;;;;;;;;;;5091306;28;20071;-86
2022/07/27 14:07:38;;;;;;;4.00;0.90;;;;;;;;;;5083997;28;20048;-84
2022/07/27 14:12:55;;;;;;;4.43;1.10;;;;;;;;;;5078982;28;20049;-84
2022/07/27 14:15:25;;;;;;;1.67;0.90;;;;;;;;;;5080629;28;20059;-85
2022/07/27 14:17:52;;;;;;;4.95;1.02;;;;;;;;;;5078668;28;20097;-85
2022/07/27 14:20:19;;;;;;;4.03;0.80;;;;;;;;;;5090768;28;20052;-86
2022/07/27 14:22:47;;;;;;;3.28;0.95;;;;;;;;;;5091179;28;20044;-88
2022/07/27 14:25:14;;;;;;;4.50;0.80;;;;;;;;;;5088236;28;20075;-85
2022/07/27 14:27:41;;;;;;;7.35;1.38;;;;;;;;;;5094544;28;20048;-85
2022/07/27 14:30:09;;;;;;;7.57;1.38;;;;;;;;;;5091275;28;20098;-87
2022/07/27 14:32:36;;;;;;;2.15;0.80;;;;;;;;;;5083801;28;20082;-84
2022/07/27 14:35:05;;;;;;;5.70;0.93;;;;;;;;;;5088741;28;20036;-82
2022/07/27 14:37:33;;;;;;;3.88;0.88;;;;;;;;;;5087306;28;20458;-85
2022/07/27 14:40:00;;;;;;;4.75;0.90;;;;;;;;;;5077605;28;20122;-83
2022/07/27 14:42:27;;;;;;;10.07;1.10;;;;;;;;;;5082082;28;20421;-82
2022/07/27 14:44:55;;;;;;;3.25;1.17;;;;;;;;;;5083526;28;20417;-85
2022/07/27 14:47:23;;;;;;;4.22;1.20;;;;;;;;;;5084998;28;20052;-85
2022/07/27 14:49:50;;;;;;;5.18;1.30;;;;;;;;;;5081797;28;20051;-85
2022/07/27 14:52:18;;;;;;;2.25;0.98;;;;;;;;;;5084829;28;20064;-87
2022/07/27 14:54:46;;;;;;;2.13;1.27;;;;;;;;;;5087624;28;20044;-86
2022/07/27 14:57:14;;;;;;;4.78;1.35;;;;;;;;;;5082027;28;20490;-85
2022/07/27 14:59:42;;;;;;;6.68;1.20;;;;;;;;;;5086293;28;20048;-85
2022/07/27 15:02:09;;;;;;;2.30;0.75;;;;;;;;;;5087972;28;20049;-85